createdAt,value
2019-03-13T00:00:44.804Z,3.03
2019-03-13T00:03:13.328Z,2.10
2019-03-13T00:05:41.691Z,2.90
2019-03-13T00:08:10.076Z,2.50
2019-03-13T00:10:38.672Z,3.80
2019-03-13T00:13:07.134Z,5.00
2019-03-13T00:15:35.625Z,2.93
2019-03-13T00:18:04.514Z,3.20
2019-03-13T00:20:33.001Z,2.63
2019-03-13T00:23:01.356Z,2.47
2019-03-13T00:25:29.973Z,2.33
2019-03-13T00:27:58.385Z,2.27
2019-03-13T00:30:27.004Z,3.50
2019-03-13T00:32:55.360Z,2.40
2019-03-13T00:35:24.822Z,2.63
2019-03-13T00:37:53.207Z,2.53
2019-03-13T00:40:21.551Z,2.93
2019-03-13T00:42:49.942Z,2.53
2019-03-13T00:45:18.290Z,2.57
2019-03-13T00:47:46.591Z,2.27
2019-03-13T00:50:23.676Z,3.33
2019-03-13T00:52:51.998Z,2.90
2019-03-13T00:55:20.376Z,3.07
2019-03-13T00:57:48.809Z,2.60
2019-03-13T01:00:21.679Z,1.60
2019-03-13T01:02:50.361Z,1.67
2019-03-13T01:05:24.062Z,2.57
2019-03-13T01:07:52.393Z,2.70
2019-03-13T01:10:21.025Z,2.30
2019-03-13T01:12:49.400Z,2.20
2019-03-13T01:15:17.787Z,2.90
2019-03-13T01:17:46.156Z,2.43
2019-03-13T01:20:14.706Z,2.33
2019-03-13T01:22:43.015Z,2.20
2019-03-13T01:25:11.421Z,2.40
2019-03-13T01:27:39.846Z,2.30
2019-03-13T01:30:08.331Z,1.70
2019-03-13T01:32:42.899Z,2.20
2019-03-13T01:35:16.983Z,2.17
2019-03-13T01:37:45.488Z,2.87
2019-03-13T01:40:13.824Z,2.30
2019-03-13T01:42:42.191Z,2.13
2019-03-13T01:45:10.596Z,3.27
2019-03-13T01:47:39.237Z,2.17
2019-03-13T01:50:07.963Z,2.50
2019-03-13T01:52:36.341Z,2.10
2019-03-13T01:55:04.891Z,2.70
2019-03-13T01:57:33.234Z,2.33
2019-03-13T02:00:01.545Z,2.53
2019-03-13T02:02:29.887Z,2.20
2019-03-13T02:04:58.383Z,2.33
2019-03-13T02:07:27.227Z,2.50
2019-03-13T02:09:55.540Z,2.67
2019-03-13T02:12:24.014Z,2.20
2019-03-13T02:14:52.350Z,2.10
2019-03-13T02:17:20.654Z,2.47
2019-03-13T02:19:49.966Z,2.10
2019-03-13T02:22:17.378Z,2.00
2019-03-13T02:24:45.870Z,2.67
2019-03-13T02:27:14.700Z,3.10
2019-03-13T02:29:43.213Z,2.30
2019-03-13T02:32:11.619Z,2.57
2019-03-13T02:34:39.984Z,2.47
2019-03-13T02:37:08.373Z,2.53
2019-03-13T02:39:36.721Z,2.60
2019-03-13T02:42:05.082Z,3.10
2019-03-13T02:44:33.507Z,2.70
2019-03-13T02:47:01.895Z,2.20
2019-03-13T02:49:30.328Z,2.70
2019-03-13T02:51:58.565Z,3.10
2019-03-13T02:54:26.897Z,2.50
2019-03-13T02:56:55.386Z,2.53
2019-03-13T02:59:23.762Z,2.37
2019-03-13T03:02:05.347Z,2.90
2019-03-13T03:04:33.666Z,2.43
2019-03-13T03:07:02.372Z,2.30
2019-03-13T03:09:31.598Z,2.47
2019-03-13T03:12:00.023Z,3.03
2019-03-13T03:14:28.365Z,2.50
2019-03-13T03:16:56.687Z,2.50
2019-03-13T03:19:25.211Z,2.80
2019-03-13T03:21:53.616Z,2.40
2019-03-13T03:24:21.984Z,2.40
2019-03-13T03:26:50.362Z,2.47
2019-03-13T03:29:18.690Z,1.80
2019-03-13T03:31:47.103Z,2.77
2019-03-13T03:34:15.451Z,2.00
2019-03-13T03:36:43.849Z,2.70
2019-03-13T03:39:12.230Z,2.87
2019-03-13T03:41:40.543Z,2.73
2019-03-13T03:44:09.027Z,2.07
2019-03-13T03:46:37.389Z,2.23
2019-03-13T03:49:05.815Z,2.30
2019-03-13T03:51:34.208Z,2.00
2019-03-13T03:54:02.533Z,2.33
2019-03-13T03:56:31.186Z,2.47
2019-03-13T03:58:59.595Z,2.30
2019-03-13T04:01:27.963Z,2.60
2019-03-13T04:03:56.283Z,2.50
2019-03-13T04:06:24.966Z,2.00
2019-03-13T04:08:53.342Z,2.47
2019-03-13T04:11:22.086Z,4.20
2019-03-13T04:13:50.510Z,2.97
2019-03-13T04:16:18.933Z,2.63
2019-03-13T04:18:47.322Z,2.63
2019-03-13T04:21:15.621Z,2.77
2019-03-13T04:23:43.905Z,2.43
2019-03-13T04:26:13.078Z,2.63
2019-03-13T04:28:40.941Z,2.53
2019-03-13T04:31:09.554Z,3.23
2019-03-13T04:33:37.876Z,2.43
2019-03-13T04:36:06.212Z,2.57
2019-03-13T04:38:34.613Z,2.50
2019-03-13T04:41:02.944Z,2.60
2019-03-13T04:43:31.241Z,2.57
2019-03-13T04:45:59.569Z,2.50
2019-03-13T04:48:27.928Z,2.50
2019-03-13T04:50:56.664Z,2.90
2019-03-13T04:53:25.242Z,2.67
2019-03-13T04:55:53.576Z,1.90
2019-03-13T04:58:22.113Z,2.10
2019-03-13T05:00:50.467Z,2.67
2019-03-13T05:03:18.913Z,2.63
2019-03-13T05:05:49.157Z,2.50
2019-03-13T05:09:27.547Z,2.23
2019-03-13T05:11:56.257Z,3.60
2019-03-13T05:14:24.595Z,3.27
2019-03-13T05:16:52.911Z,3.50
2019-03-13T05:19:21.256Z,4.17
2019-03-13T05:21:49.653Z,3.43
2019-03-13T05:24:18.178Z,3.50
2019-03-13T05:26:46.508Z,2.97
2019-03-13T05:29:14.867Z,3.33
2019-03-13T05:31:43.201Z,3.30
2019-03-13T05:34:11.512Z,2.60
2019-03-13T05:36:39.866Z,2.60
2019-03-13T05:39:08.352Z,2.40
2019-03-13T05:41:36.731Z,2.33
2019-03-13T05:44:05.082Z,2.87
2019-03-13T05:46:33.417Z,2.73
2019-03-13T05:49:01.844Z,2.20
2019-03-13T05:51:30.252Z,2.00
2019-03-13T05:53:58.825Z,2.13
2019-03-13T05:56:27.233Z,2.10
2019-03-13T05:58:55.602Z,2.20
2019-03-13T06:01:23.957Z,2.20
2019-03-13T06:03:52.475Z,2.03
2019-03-13T06:06:21.028Z,2.00
2019-03-13T06:08:49.389Z,2.40
2019-03-13T06:11:17.864Z,2.83
2019-03-13T06:13:47.485Z,2.43
2019-03-13T06:16:15.436Z,2.70
2019-03-13T06:18:43.886Z,3.20
2019-03-13T06:21:12.500Z,2.30
2019-03-13T06:23:40.864Z,2.73
2019-03-13T06:26:09.199Z,2.73
2019-03-13T06:28:37.547Z,3.10
2019-03-13T06:31:06.196Z,3.63
2019-03-13T06:33:34.618Z,3.63
2019-03-13T06:36:03.116Z,3.43
2019-03-13T06:38:32.550Z,3.63
2019-03-13T06:41:01.023Z,3.27
2019-03-13T06:43:29.356Z,3.40
2019-03-13T06:45:57.659Z,3.33
2019-03-13T06:48:25.992Z,3.80
2019-03-13T06:50:54.480Z,3.37
2019-03-13T06:53:22.867Z,3.57
2019-03-13T06:55:51.673Z,3.87
2019-03-13T06:58:24.227Z,3.93
2019-03-13T07:01:03.667Z,3.90
2019-03-13T07:03:38.083Z,3.43
2019-03-13T07:08:14.585Z,3.30
2019-03-13T07:10:51.517Z,3.63
2019-03-13T07:13:24.879Z,3.90
2019-03-13T07:15:58.415Z,3.67
2019-03-13T07:18:32.007Z,3.60
2019-03-13T07:21:11.663Z,3.00
2019-03-13T07:23:47.998Z,3.50
2019-03-13T07:26:20.834Z,3.30
2019-03-13T07:28:54.413Z,3.47
2019-03-13T07:33:31.526Z,4.23
2019-03-13T07:37:07.301Z,3.47
2019-03-13T07:39:48.858Z,2.73
2019-03-13T07:42:21.522Z,4.00
2019-03-13T07:44:54.114Z,3.63
2019-03-13T07:49:29.271Z,3.37
2019-03-13T07:52:19.866Z,3.33
2019-03-13T07:54:56.471Z,4.07
2019-03-13T07:57:29.854Z,4.23
2019-03-13T08:00:19.422Z,3.60
2019-03-13T08:03:07.827Z,3.57
2019-03-13T08:07:47.959Z,4.27
2019-03-13T08:10:28.429Z,4.00
2019-03-13T08:13:01.182Z,4.70
2019-03-13T08:15:37.684Z,4.93
2019-03-13T08:18:18.088Z,4.30
2019-03-13T08:20:55.594Z,4.37
2019-03-13T08:23:28.328Z,4.10
2019-03-13T08:26:03.903Z,4.57
2019-03-13T08:28:39.462Z,4.50
2019-03-13T08:31:15.970Z,4.53
2019-03-13T08:34:12.086Z,4.63
2019-03-13T08:38:47.115Z,5.03
2019-03-13T08:41:23.424Z,5.37
2019-03-13T08:43:59.031Z,4.77
2019-03-13T08:48:34.184Z,5.03
2019-03-13T08:53:09.372Z,4.33
2019-03-13T08:55:50.729Z,5.63
2019-03-13T08:58:25.191Z,6.33
2019-03-13T09:03:00.359Z,5.77
2019-03-13T09:05:37.894Z,6.40
2019-03-13T09:08:10.420Z,5.67
2019-03-13T09:10:43.937Z,6.70
2019-03-13T09:15:24.084Z,5.83
2019-03-13T09:17:57.869Z,6.50
2019-03-13T09:20:33.313Z,6.10
2019-03-13T09:23:06.727Z,6.30
2019-03-13T09:25:40.504Z,7.87
2019-03-13T09:28:28.105Z,6.13
2019-03-13T09:31:04.676Z,5.93
2019-03-13T09:33:38.126Z,5.97
2019-03-13T09:36:20.740Z,6.33
2019-03-13T09:38:56.215Z,6.67
2019-03-13T09:41:29.648Z,5.97
2019-03-13T09:44:04.145Z,6.27
2019-03-13T09:46:36.753Z,6.60
2019-03-13T09:49:10.413Z,5.97
2019-03-13T09:51:43.082Z,5.73
2019-03-13T09:54:18.600Z,5.57
2019-03-13T09:56:51.140Z,6.17
2019-03-13T09:59:26.774Z,6.07
2019-03-13T10:02:08.170Z,6.00
2019-03-13T10:05:13.697Z,5.83
2019-03-13T10:07:48.223Z,6.37
2019-03-13T10:10:21.726Z,7.23
2019-03-13T10:12:56.410Z,6.90
2019-03-13T10:15:33.139Z,7.60
2019-03-13T10:20:09.332Z,7.70
2019-03-13T10:22:42.946Z,8.87
2019-03-13T10:25:26.366Z,8.63
2019-03-13T10:28:01.799Z,8.90
2019-03-13T10:30:36.347Z,8.90
2019-03-13T10:33:10.946Z,10.00
2019-03-13T10:36:00.540Z,10.30
2019-03-13T10:38:34.304Z,10.53
2019-03-13T10:41:11.058Z,9.93
2019-03-13T10:43:45.628Z,11.27
2019-03-13T10:46:18.204Z,10.47
2019-03-13T10:49:25.016Z,10.00
2019-03-13T10:52:03.461Z,10.83
2019-03-13T10:54:37.154Z,10.47
2019-03-13T10:57:13.697Z,9.77
2019-03-13T10:59:50.439Z,11.13
2019-03-13T11:04:31.407Z,9.60
2019-03-13T11:07:05.049Z,10.17
2019-03-13T11:09:39.571Z,10.60
2019-03-13T11:12:27.719Z,9.13
2019-03-13T11:17:03.161Z,8.73
2019-03-13T11:21:38.426Z,8.83
2019-03-13T11:24:17.063Z,6.87
2019-03-13T11:28:53.182Z,7.43
2019-03-13T11:31:26.102Z,6.47
2019-03-13T11:34:02.604Z,6.47
2019-03-13T11:36:35.302Z,7.43
2019-03-13T11:39:08.780Z,7.80
2019-03-13T11:41:45.263Z,8.70
2019-03-13T11:46:20.472Z,9.97
2019-03-13T11:51:00.978Z,9.40
2019-03-13T11:53:36.386Z,10.67
2019-03-13T11:56:28.030Z,10.73
2019-03-13T11:59:01.741Z,11.77
2019-03-13T12:01:45.286Z,9.87
2019-03-13T12:04:08.436Z,11.93
2019-03-13T12:06:42.031Z,10.10
2019-03-13T12:09:15.558Z,11.53
2019-03-13T12:11:49.019Z,11.50
2019-03-13T12:14:24.410Z,8.67
2019-03-13T12:17:00.835Z,10.97
2019-03-13T12:21:42.260Z,12.30
2019-03-13T12:26:17.456Z,11.13
2019-03-13T12:28:50.142Z,10.30
2019-03-13T12:31:22.750Z,8.33
2019-03-13T12:33:56.307Z,10.37
2019-03-13T12:36:31.790Z,9.03
2019-03-13T12:39:11.196Z,10.37
2019-03-13T12:43:46.076Z,8.43
2019-03-13T12:46:19.621Z,9.30
2019-03-13T12:49:23.308Z,8.90
2019-03-13T12:52:02.786Z,8.40
2019-03-13T12:54:37.306Z,8.37
2019-03-13T12:57:09.882Z,8.63
2019-03-13T12:59:43.279Z,7.00
2019-03-13T13:02:20.817Z,8.20
2019-03-13T13:05:09.264Z,4.67
2019-03-13T13:07:46.807Z,6.30
2019-03-13T13:11:18.719Z,9.23
2019-03-13T13:13:54.096Z,7.03
2019-03-13T13:17:30.952Z,10.50
2019-03-13T13:19:59.293Z,9.53
2019-03-13T13:22:27.702Z,9.00
2019-03-13T13:24:56.028Z,10.30
2019-03-13T13:27:24.510Z,12.37
2019-03-13T13:29:53.216Z,8.73
2019-03-13T13:32:21.676Z,7.73
2019-03-13T13:34:50.110Z,8.13
2019-03-13T13:37:18.429Z,8.27
2019-03-13T13:39:46.773Z,8.57
2019-03-13T13:42:15.135Z,6.87
2019-03-13T13:44:43.526Z,7.63
2019-03-13T13:47:12.017Z,8.73
2019-03-13T13:49:40.378Z,5.83
2019-03-13T13:52:08.791Z,6.63
2019-03-13T13:54:37.135Z,5.90
2019-03-13T13:57:05.724Z,8.37
2019-03-13T13:59:34.118Z,9.87
2019-03-13T14:02:02.509Z,4.70
2019-03-13T14:04:31.417Z,6.47
2019-03-13T14:06:59.740Z,6.27
2019-03-13T14:09:28.287Z,4.27
2019-03-13T14:11:56.656Z,4.93
2019-03-13T14:14:25.017Z,4.20
2019-03-13T14:16:53.439Z,5.20
2019-03-13T14:19:21.835Z,3.83
2019-03-13T14:21:50.475Z,4.27
2019-03-13T14:24:20.376Z,3.53
2019-03-13T14:26:48.807Z,3.97
2019-03-13T14:29:17.795Z,4.80
2019-03-13T14:31:46.846Z,4.40
2019-03-13T14:34:15.366Z,3.43
2019-03-13T14:36:43.743Z,2.80
2019-03-13T14:39:12.176Z,4.00
2019-03-13T14:41:40.604Z,3.90
2019-03-13T14:44:08.966Z,4.00
2019-03-13T14:46:37.403Z,4.47
2019-03-13T14:49:05.901Z,2.67
2019-03-13T14:51:34.244Z,2.83
2019-03-13T14:54:02.607Z,4.20
2019-03-13T14:56:31.344Z,3.17
2019-03-13T14:58:59.668Z,3.13
2019-03-13T15:01:28.060Z,4.43
2019-03-13T15:03:56.414Z,3.80
2019-03-13T15:06:24.876Z,2.80
2019-03-13T15:08:53.431Z,4.27
2019-03-13T15:11:21.920Z,2.60
2019-03-13T15:13:50.271Z,2.33
2019-03-13T15:16:18.699Z,3.17
2019-03-13T15:18:47.276Z,2.13
2019-03-13T15:21:15.800Z,2.63
2019-03-13T15:23:44.157Z,2.03
2019-03-13T15:26:12.571Z,2.00
2019-03-13T15:28:41.023Z,2.40
2019-03-13T15:31:09.502Z,2.03
2019-03-13T15:33:37.911Z,2.53
2019-03-13T15:36:06.270Z,2.23
2019-03-13T15:38:34.753Z,3.17
2019-03-13T15:41:03.494Z,2.30
2019-03-13T15:43:31.868Z,2.97
2019-03-13T15:46:00.377Z,2.73
2019-03-13T15:48:28.740Z,3.23
2019-03-13T15:50:57.038Z,2.30
2019-03-13T15:53:25.610Z,2.37
2019-03-13T15:55:54.083Z,2.80
2019-03-13T15:58:22.470Z,2.50
2019-03-13T16:00:50.991Z,2.90
2019-03-13T16:03:19.403Z,2.83
2019-03-13T16:05:47.776Z,3.47
2019-03-13T16:08:16.157Z,5.03
2019-03-13T16:10:44.523Z,5.63
2019-03-13T16:13:12.927Z,5.13
2019-03-13T16:15:41.311Z,4.70
2019-03-13T16:18:09.642Z,3.97
2019-03-13T16:20:38.016Z,3.07
2019-03-13T16:23:06.425Z,2.60
2019-03-13T16:25:34.882Z,3.10
2019-03-13T16:28:03.550Z,2.60
2019-03-13T16:30:34.240Z,2.83
2019-03-13T16:33:02.531Z,1.63
2019-03-13T16:35:30.925Z,2.13
2019-03-13T16:37:59.310Z,2.60
2019-03-13T16:40:27.658Z,2.40
2019-03-13T16:42:56.051Z,2.17
2019-03-13T16:45:24.456Z,2.00
2019-03-13T16:47:52.870Z,2.83
2019-03-13T16:50:21.312Z,5.50
2019-03-13T16:52:49.758Z,3.90
2019-03-13T16:55:18.623Z,2.97
2019-03-13T16:57:47.445Z,3.40
2019-03-13T17:00:19.048Z,2.80
2019-03-13T17:02:47.452Z,3.13
2019-03-13T17:05:16.006Z,3.37
2019-03-13T17:07:44.474Z,2.87
2019-03-13T17:10:13.768Z,3.13
2019-03-13T17:12:42.332Z,3.43
2019-03-13T17:15:13.137Z,3.27
2019-03-13T17:17:41.459Z,3.23
2019-03-13T17:20:12.971Z,3.53
2019-03-13T17:22:43.309Z,4.00
2019-03-13T17:25:10.823Z,3.30
2019-03-13T17:27:39.175Z,4.23
2019-03-13T17:30:10.219Z,3.47
2019-03-13T17:32:38.541Z,3.00
2019-03-13T17:35:07.285Z,3.23
2019-03-13T17:37:35.649Z,3.47
2019-03-13T17:40:04.272Z,3.43
2019-03-13T17:42:32.553Z,3.53
2019-03-13T17:45:00.933Z,3.40
2019-03-13T17:47:29.476Z,3.30
2019-03-13T17:49:57.881Z,2.90
2019-03-13T17:52:26.209Z,3.53
2019-03-13T17:54:54.572Z,3.37
2019-03-13T17:57:22.884Z,3.60
2019-03-13T17:59:51.478Z,4.20
2019-03-13T18:02:19.917Z,3.67
2019-03-13T18:04:48.337Z,4.23
2019-03-13T18:07:16.735Z,3.50
2019-03-13T18:09:45.027Z,2.70
2019-03-13T18:12:13.355Z,3.33
2019-03-13T18:14:41.665Z,4.67
2019-03-13T18:17:10.225Z,4.27
2019-03-13T18:19:38.568Z,3.60
2019-03-13T18:22:06.913Z,3.97
2019-03-13T18:24:35.448Z,4.43
2019-03-13T18:27:03.844Z,4.07
2019-03-13T18:29:32.220Z,3.70
2019-03-13T18:32:01.028Z,5.60
2019-03-13T18:34:29.481Z,4.93
2019-03-13T18:36:57.950Z,5.03
2019-03-13T18:39:26.322Z,4.47
2019-03-13T18:41:54.644Z,4.10
2019-03-13T18:44:23.015Z,4.57
2019-03-13T18:46:51.419Z,5.17
2019-03-13T18:49:19.926Z,5.07
2019-03-13T18:51:48.317Z,5.17
2019-03-13T18:54:16.685Z,5.63
2019-03-13T18:56:45.015Z,4.97
2019-03-13T18:59:13.352Z,5.50
2019-03-13T19:01:41.704Z,5.40
2019-03-13T19:04:10.029Z,6.83
2019-03-13T19:06:38.419Z,4.73
2019-03-13T19:09:06.800Z,5.30
2019-03-13T19:11:35.212Z,6.13
2019-03-13T19:14:03.902Z,6.03
2019-03-13T19:16:32.235Z,6.07
2019-03-13T19:19:01.034Z,5.50
2019-03-13T19:21:31.393Z,5.53
2019-03-13T19:24:02.435Z,6.10
2019-03-13T19:26:28.550Z,5.70
2019-03-13T19:28:56.918Z,4.03
2019-03-13T19:31:25.318Z,5.63
2019-03-13T19:33:53.939Z,5.87
2019-03-13T19:36:22.321Z,8.97
2019-03-13T19:38:50.725Z,7.27
2019-03-13T19:41:19.129Z,5.53
2019-03-13T19:43:47.480Z,7.77
2019-03-13T19:46:15.843Z,3.93
2019-03-13T19:48:44.587Z,6.87
2019-03-13T19:51:12.896Z,6.80
2019-03-13T19:53:42.034Z,6.37
2019-03-13T19:56:09.613Z,5.07
2019-03-13T19:58:38.257Z,5.37
2019-03-13T20:01:06.760Z,7.13
2019-03-13T20:03:35.150Z,9.03
2019-03-13T20:06:03.585Z,5.90
2019-03-13T20:08:32.165Z,8.13
2019-03-13T20:11:00.590Z,7.10
2019-03-13T20:13:29.091Z,6.60
2019-03-13T20:15:57.452Z,7.90
2019-03-13T20:18:25.896Z,4.83
2019-03-13T20:20:54.452Z,8.17
2019-03-13T20:23:22.772Z,4.80
2019-03-13T20:25:51.239Z,6.47
2019-03-13T20:28:19.731Z,9.10
2019-03-13T20:30:48.587Z,8.07
2019-03-13T20:33:16.994Z,5.90
2019-03-13T20:35:45.774Z,6.43
2019-03-13T20:38:14.263Z,6.83
2019-03-13T20:40:42.700Z,6.47
2019-03-13T20:43:11.016Z,5.20
2019-03-13T20:45:39.615Z,7.50
2019-03-13T20:48:07.942Z,5.63
2019-03-13T20:50:37.820Z,5.20
2019-03-13T20:53:04.707Z,6.30
2019-03-13T20:55:33.011Z,6.40
2019-03-13T20:58:01.502Z,4.70
2019-03-13T21:00:30.350Z,5.40
2019-03-13T21:02:58.755Z,7.03
2019-03-13T21:05:27.338Z,8.23
2019-03-13T21:07:55.905Z,7.87
2019-03-13T21:10:24.281Z,6.43
2019-03-13T21:12:52.969Z,4.73
2019-03-13T21:15:21.567Z,8.67
2019-03-13T21:17:50.264Z,6.80
2019-03-13T21:20:18.720Z,7.60
2019-03-13T21:22:47.230Z,6.57
2019-03-13T21:25:15.943Z,7.70
2019-03-13T21:27:47.584Z,6.87
2019-03-13T21:30:16.357Z,7.90
2019-03-13T21:32:44.692Z,7.77
2019-03-13T21:35:13.057Z,7.63
2019-03-13T21:37:41.815Z,8.07
2019-03-13T21:40:10.805Z,7.43
2019-03-13T21:42:39.204Z,6.47
2019-03-13T21:45:21.222Z,6.83
2019-03-13T21:47:36.557Z,8.07
2019-03-13T21:50:05.532Z,8.17
2019-03-13T21:52:33.924Z,9.20
2019-03-13T21:55:02.424Z,7.67
2019-03-13T21:57:30.771Z,7.40
2019-03-13T21:59:59.125Z,6.20
2019-03-13T22:02:32.925Z,8.27
2019-03-13T22:04:55.919Z,6.13
2019-03-13T22:07:24.428Z,7.20
2019-03-13T22:09:52.713Z,8.50
2019-03-13T22:12:21.089Z,7.30
2019-03-13T22:14:49.581Z,7.70
2019-03-13T22:17:17.906Z,8.27
2019-03-13T22:19:46.241Z,8.77
2019-03-13T22:22:14.651Z,5.87
2019-03-13T22:24:43.062Z,7.87
2019-03-13T22:27:14.522Z,8.50
2019-03-13T22:29:40.241Z,9.77
2019-03-13T22:32:08.616Z,8.03
2019-03-13T22:34:36.999Z,8.37
2019-03-13T22:37:05.392Z,6.23
2019-03-13T22:39:33.877Z,8.87
2019-03-13T22:42:02.242Z,9.10
2019-03-13T22:44:30.613Z,8.13
2019-03-13T22:46:58.926Z,7.90
2019-03-13T22:49:27.283Z,8.73
2019-03-13T22:51:55.609Z,8.07
2019-03-13T22:54:24.228Z,8.37
2019-03-13T22:56:52.587Z,8.43
2019-03-13T22:59:20.977Z,8.13
2019-03-13T23:01:49.311Z,8.33
2019-03-13T23:04:17.662Z,8.47
2019-03-13T23:06:46.070Z,6.63
2019-03-13T23:09:14.510Z,8.03
2019-03-13T23:11:42.950Z,7.80
2019-03-13T23:14:11.439Z,6.93
2019-03-13T23:16:39.900Z,7.80
2019-03-13T23:19:08.369Z,5.47
2019-03-13T23:21:36.695Z,7.50
2019-03-13T23:24:05.014Z,7.77
2019-03-13T23:26:33.357Z,7.40
2019-03-13T23:29:01.661Z,8.97
2019-03-13T23:31:29.997Z,7.93
2019-03-13T23:33:58.377Z,7.20
2019-03-13T23:36:26.902Z,7.60
2019-03-13T23:38:55.197Z,7.50
2019-03-13T23:41:23.891Z,6.50
2019-03-13T23:43:52.243Z,7.47
2019-03-13T23:46:20.559Z,7.93
2019-03-13T23:48:48.912Z,6.83
2019-03-13T23:51:17.192Z,5.67
2019-03-13T23:53:45.575Z,5.47
2019-03-13T23:56:13.936Z,5.87
2019-03-13T23:58:42.342Z,5.67
